sensor_id;sensor_type;location;lat;lon;timestamp;pressure;altitude;pressure_sealevel;temperature;humidity
70544;BME280;58097;48.364;-1.224;2022-12-17T00:01:54;100143.09;;;-1.52;72.09
70544;BME280;58097;48.364;-1.224;2022-12-17T00:04:38;100146.94;;;-1.57;72.07
70544;BME280;58097;48.364;-1.224;2022-12-17T00:07:22;100145.44;;;-1.62;72.03
70544;BME280;58097;48.364;-1.224;2022-12-17T00:10:07;100145.59;;;-1.65;72.25
70544;BME280;58097;48.364;-1.224;2022-12-17T00:12:51;100142.97;;;-1.67;72.47
70544;BME280;58097;48.364;-1.224;2022-12-17T00:15:35;100136.81;;;-1.70;72.33
70544;BME280;58097;48.364;-1.224;2022-12-17T00:18:19;100134.31;;;-1.75;72.26
70544;BME280;58097;48.364;-1.224;2022-12-17T00:21:03;100144.28;;;-1.75;72.48
70544;BME280;58097;48.364;-1.224;2022-12-17T00:23:47;100127.31;;;-1.79;72.47
70544;BME280;58097;48.364;-1.224;2022-12-17T00:26:31;100137.34;;;-1.81;72.53
70544;BME280;58097;48.364;-1.224;2022-12-17T00:29:15;100129.22;;;-1.81;72.51
70544;BME280;58097;48.364;-1.224;2022-12-17T00:32:19;100131.28;;;-1.86;72.50
70544;BME280;58097;48.364;-1.224;2022-12-17T00:35:03;100124.94;;;-1.85;72.71
70544;BME280;58097;48.364;-1.224;2022-12-17T00:37:47;100131.28;;;-1.86;72.58
70544;BME280;58097;48.364;-1.224;2022-12-17T00:40:31;100129.53;;;-1.87;72.37
70544;BME280;58097;48.364;-1.224;2022-12-17T00:43:15;100126.03;;;-1.89;72.43
70544;BME280;58097;48.364;-1.224;2022-12-17T00:45:59;100132.34;;;-1.89;72.37
70544;BME280;58097;48.364;-1.224;2022-12-17T00:48:44;100124.75;;;-1.82;72.82
70544;BME280;58097;48.364;-1.224;2022-12-17T00:51:28;100121.97;;;-1.80;72.73
70544;BME280;58097;48.364;-1.224;2022-12-17T00:54:12;100124.75;;;-1.82;72.83
70544;BME280;58097;48.364;-1.224;2022-12-17T00:56:56;100123.16;;;-1.86;72.58
70544;BME280;58097;48.364;-1.224;2022-12-17T00:59:41;100131.28;;;-1.86;73.01
70544;BME280;58097;48.364;-1.224;2022-12-17T01:02:25;100132.34;;;-1.89;72.86
70544;BME280;58097;48.364;-1.224;2022-12-17T01:05:10;100125.25;;;-1.91;72.42
70544;BME280;58097;48.364;-1.224;2022-12-17T01:07:55;100122.78;;;-1.96;72.60
70544;BME280;58097;48.364;-1.224;2022-12-17T01:10:39;100125.63;;;-1.99;72.74
70544;BME280;58097;48.364;-1.224;2022-12-17T01:13:23;100128.41;;;-2.00;72.70
70544;BME280;58097;48.364;-1.224;2022-12-17T01:16:12;100126.50;;;-1.98;72.91
70544;BME280;58097;48.364;-1.224;2022-12-17T01:18:58;100134.47;;;-1.95;72.96
70544;BME280;58097;48.364;-1.224;2022-12-17T01:21:56;100136.16;;;-1.93;73.28
70544;BME280;58097;48.364;-1.224;2022-12-17T01:24:40;100136.06;;;-1.91;73.10
70544;BME280;58097;48.364;-1.224;2022-12-17T01:27:24;100125.16;;;-1.90;73.20
70544;BME280;58097;48.364;-1.224;2022-12-17T01:30:08;100127.78;;;-1.88;73.13
70544;BME280;58097;48.364;-1.224;2022-12-17T01:32:52;100131.22;;;-1.84;73.36
70544;BME280;58097;48.364;-1.224;2022-12-17T01:35:42;100123.09;;;-1.84;73.15
70544;BME280;58097;48.364;-1.224;2022-12-17T01:38:26;100121.34;;;-1.85;73.25
70544;BME280;58097;48.364;-1.224;2022-12-17T01:41:10;100120.47;;;-1.86;73.15
70544;BME280;58097;48.364;-1.224;2022-12-17T01:43:54;100132.88;;;-1.82;72.91
70544;BME280;58097;48.364;-1.224;2022-12-17T01:46:40;100140.38;;;-1.87;73.04
70544;BME280;58097;48.364;-1.224;2022-12-17T01:49:29;100144.03;;;-1.88;72.84
70544;BME280;58097;48.364;-1.224;2022-12-17T01:52:14;100145.97;;;-1.90;72.91
70544;BME280;58097;48.364;-1.224;2022-12-17T01:55:01;100145.97;;;-1.90;73.22
70544;BME280;58097;48.364;-1.224;2022-12-17T01:57:45;100150.50;;;-1.91;73.21
70544;BME280;58097;48.364;-1.224;2022-12-17T02:00:29;100154.00;;;-1.89;73.44
70544;BME280;58097;48.364;-1.224;2022-12-17T02:03:14;100157.66;;;-1.90;73.43
70544;BME280;58097;48.364;-1.224;2022-12-17T02:09:16;100163.09;;;-1.90;73.23
70544;BME280;58097;48.364;-1.224;2022-12-17T02:15:10;100165.72;;;-1.88;73.49
70544;BME280;58097;48.364;-1.224;2022-12-17T02:17:59;100167.69;;;-1.92;73.39
70544;BME280;58097;48.364;-1.224;2022-12-17T02:20:47;100157.91;;;-1.94;73.33
70544;BME280;58097;48.364;-1.224;2022-12-17T02:24:04;100161.56;;;-1.95;73.21
70544;BME280;58097;48.364;-1.224;2022-12-17T02:26:53;100157.91;;;-1.94;72.96
70544;BME280;58097;48.364;-1.224;2022-12-17T02:29:49;100149.78;;;-1.94;73.10
70544;BME280;58097;48.364;-1.224;2022-12-17T02:32:36;100156.94;;;-1.93;73.45
70544;BME280;58097;48.364;-1.224;2022-12-17T02:35:29;100158.94;;;-1.97;73.23
70544;BME280;58097;48.364;-1.224;2022-12-17T02:38:40;100150.97;;;-2.00;73.45
70544;BME280;58097;48.364;-1.224;2022-12-17T02:41:30;100152.72;;;-1.99;73.58
70544;BME280;58097;48.364;-1.224;2022-12-17T02:44:16;100154.47;;;-1.98;73.64
70544;BME280;58097;48.364;-1.224;2022-12-17T02:47:03;100160.78;;;-1.97;73.41
70544;BME280;58097;48.364;-1.224;2022-12-17T02:49:49;100164.44;;;-1.98;73.55
70544;BME280;58097;48.364;-1.224;2022-12-17T02:52:35;100161.66;;;-1.97;73.67
70544;BME280;58097;48.364;-1.224;2022-12-17T02:55:21;100168.00;;;-1.98;73.65
70544;BME280;58097;48.364;-1.224;2022-12-17T02:58:05;100173.34;;;-1.96;73.80
70544;BME280;58097;48.364;-1.224;2022-12-17T03:00:49;100171.44;;;-1.94;73.70
70544;BME280;58097;48.364;-1.224;2022-12-17T03:03:33;100164.19;;;-1.94;74.03
70544;BME280;58097;48.364;-1.224;2022-12-17T03:06:17;100150.56;;;-1.92;74.06
70544;BME280;58097;48.364;-1.224;2022-12-17T03:09:02;100147.88;;;-1.92;74.28
70544;BME280;58097;48.364;-1.224;2022-12-17T03:11:45;100149.53;;;-1.90;74.02
70544;BME280;58097;48.364;-1.224;2022-12-17T03:14:29;100155.75;;;-1.88;74.09
70544;BME280;58097;48.364;-1.224;2022-12-17T03:17:13;100151.28;;;-1.89;73.96
70544;BME280;58097;48.364;-1.224;2022-12-17T03:19:57;100153.19;;;-1.91;73.80
70544;BME280;58097;48.364;-1.224;2022-12-17T03:22:41;100144.34;;;-1.94;73.60
70544;BME280;58097;48.364;-1.224;2022-12-17T03:25:24;100131.84;;;-1.97;73.83
70544;BME280;58097;48.364;-1.224;2022-12-17T03:28:10;100140.47;;;-1.89;74.03
70544;BME280;58097;48.364;-1.224;2022-12-17T03:30:58;100142.22;;;-1.88;74.17
70544;BME280;58097;48.364;-1.224;2022-12-17T03:33:42;100142.44;;;-1.92;73.88
70544;BME280;58097;48.364;-1.224;2022-12-17T03:36:27;100139.91;;;-1.95;73.78
70544;BME280;58097;48.364;-1.224;2022-12-17T03:39:11;100134.63;;;-1.98;73.67
70544;BME280;58097;48.364;-1.224;2022-12-17T03:41:55;100121.25;;;-2.01;73.70
70544;BME280;58097;48.364;-1.224;2022-12-17T03:44:38;100124.00;;;-2.03;73.59
70544;BME280;58097;48.364;-1.224;2022-12-17T03:47:22;100131.41;;;-2.06;73.67
70544;BME280;58097;48.364;-1.224;2022-12-17T03:50:07;100127.91;;;-2.08;73.75
70544;BME280;58097;48.364;-1.224;2022-12-17T03:52:51;100131.56;;;-2.09;73.87
70544;BME280;58097;48.364;-1.224;2022-12-17T03:55:35;100130.63;;;-2.08;73.83
70544;BME280;58097;48.364;-1.224;2022-12-17T03:58:18;100129.59;;;-2.06;74.04
70544;BME280;58097;48.364;-1.224;2022-12-17T04:01:02;100136.03;;;-2.08;74.00
70544;BME280;58097;48.364;-1.224;2022-12-17T04:03:47;100149.72;;;-2.11;74.05
70544;BME280;58097;48.364;-1.224;2022-12-17T04:06:31;100144.38;;;-2.13;74.11
70544;BME280;58097;48.364;-1.224;2022-12-17T04:09:15;100130.03;;;-2.15;74.19
70544;BME280;58097;48.364;-1.224;2022-12-17T04:11:59;100131.09;;;-2.17;73.88
70544;BME280;58097;48.364;-1.224;2022-12-17T04:14:42;100140.31;;;-2.22;73.41
70544;BME280;58097;48.364;-1.224;2022-12-17T04:17:26;100131.53;;;-2.27;73.25
70544;BME280;58097;48.364;-1.224;2022-12-17T04:20:10;100140.69;;;-2.29;73.32
70544;BME280;58097;48.364;-1.224;2022-12-17T04:22:54;100147.88;;;-2.28;73.82
70544;BME280;58097;48.364;-1.224;2022-12-17T04:25:38;100145.16;;;-2.28;74.00
70544;BME280;58097;48.364;-1.224;2022-12-17T04:28:22;100145.16;;;-2.28;74.01
70544;BME280;58097;48.364;-1.224;2022-12-17T04:31:06;100147.94;;;-2.30;74.14
70544;BME280;58097;48.364;-1.224;2022-12-17T04:33:50;100152.41;;;-2.29;74.05
70544;BME280;58097;48.364;-1.224;2022-12-17T04:36:34;100148.06;;;-2.33;73.83
70544;BME280;58097;48.364;-1.224;2022-12-17T04:39:18;100149.97;;;-2.35;73.61
70544;BME280;58097;48.364;-1.224;2022-12-17T04:42:02;100150.13;;;-2.38;73.80
70544;BME280;58097;48.364;-1.224;2022-12-17T04:44:46;100154.72;;;-2.40;73.86
70544;BME280;58097;48.364;-1.224;2022-12-17T04:47:30;100150.41;;;-2.44;73.64
70544;BME280;58097;48.364;-1.224;2022-12-17T04:50:13;100151.59;;;-2.50;73.47
70544;BME280;58097;48.364;-1.224;2022-12-17T04:53:02;100149.84;;;-2.51;73.64
70544;BME280;58097;48.364;-1.224;2022-12-17T04:55:47;100151.91;;;-2.56;73.47
70544;BME280;58097;48.364;-1.224;2022-12-17T04:58:31;100147.63;;;-2.61;73.23
70544;BME280;58097;48.364;-1.224;2022-12-17T05:01:15;100158.53;;;-2.63;73.19
70544;BME280;58097;48.364;-1.224;2022-12-17T05:03:59;100158.53;;;-2.63;73.51
70544;BME280;58097;48.364;-1.224;2022-12-17T05:06:43;100160.56;;;-2.68;73.15
70544;BME280;58097;48.364;-1.224;2022-12-17T05:09:27;100154.44;;;-2.71;73.06
70544;BME280;58097;48.364;-1.224;2022-12-17T05:12:11;100160.78;;;-2.72;72.99
70544;BME280;58097;48.364;-1.224;2022-12-17T05:14:55;100166.06;;;-2.69;73.37
70544;BME280;58097;48.364;-1.224;2022-12-17T05:17:39;100170.66;;;-2.71;73.47
70544;BME280;58097;48.364;-1.224;2022-12-17T05:20:22;100169.88;;;-2.73;73.65
70544;BME280;58097;48.364;-1.224;2022-12-17T05:23:07;100169.72;;;-2.70;73.53
70544;BME280;58097;48.364;-1.224;2022-12-17T05:26:24;100167.16;;;-2.73;73.66
70544;BME280;58097;48.364;-1.224;2022-12-17T05:29:09;100174.41;;;-2.74;73.82
70544;BME280;58097;48.364;-1.224;2022-12-17T05:31:53;100176.22;;;-2.74;74.04
70544;BME280;58097;48.364;-1.224;2022-12-17T05:34:37;100189.66;;;-2.73;74.13
70544;BME280;58097;48.364;-1.224;2022-12-17T05:37:22;100193.31;;;-2.74;74.13
70544;BME280;58097;48.364;-1.224;2022-12-17T05:40:07;100195.88;;;-2.71;74.10
70544;BME280;58097;48.364;-1.224;2022-12-17T05:42:59;100182.28;;;-2.69;74.34
70544;BME280;58097;48.364;-1.224;2022-12-17T05:45:44;100174.03;;;-2.66;74.28
70544;BME280;58097;48.364;-1.224;2022-12-17T05:48:28;100175.78;;;-2.65;74.46
70544;BME280;58097;48.364;-1.224;2022-12-17T05:51:12;100173.00;;;-2.64;74.42
70544;BME280;58097;48.364;-1.224;2022-12-17T05:53:56;100189.09;;;-2.61;74.44
70544;BME280;58097;48.364;-1.224;2022-12-17T05:56:40;100186.34;;;-2.59;74.64
70544;BME280;58097;48.364;-1.224;2022-12-17T05:59:24;100179.19;;;-2.60;74.59
70544;BME280;58097;48.364;-1.224;2022-12-17T06:02:08;100184.50;;;-2.59;74.56
70544;BME280;58097;48.364;-1.224;2022-12-17T06:04:52;100178.97;;;-2.56;74.97
70544;BME280;58097;48.364;-1.224;2022-12-17T06:07:36;100178.66;;;-2.50;76.67
70544;BME280;58097;48.364;-1.224;2022-12-17T06:10:20;100181.06;;;-2.43;78.63
70544;BME280;58097;48.364;-1.224;2022-12-17T06:13:04;100185.00;;;-2.32;78.30
70544;BME280;58097;48.364;-1.224;2022-12-17T06:15:48;100187.13;;;-2.20;78.66
70544;BME280;58097;48.364;-1.224;2022-12-17T06:18:34;100190.50;;;-2.14;79.84
70544;BME280;58097;48.364;-1.224;2022-12-17T06:21:18;100185.72;;;-2.09;80.82
70544;BME280;58097;48.364;-1.224;2022-12-17T06:24:02;100177.38;;;-2.05;80.80
70544;BME280;58097;48.364;-1.224;2022-12-17T06:26:46;100186.38;;;-2.04;80.58
70544;BME280;58097;48.364;-1.224;2022-12-17T06:29:29;100190.63;;;-1.99;80.14
70544;BME280;58097;48.364;-1.224;2022-12-17T06:32:13;100202.19;;;-1.95;80.36
70544;BME280;58097;48.364;-1.224;2022-12-17T06:34:58;100201.47;;;-1.99;80.51
70544;BME280;58097;48.364;-1.224;2022-12-17T06:37:42;100194.41;;;-2.03;81.07
70544;BME280;58097;48.364;-1.224;2022-12-17T06:40:25;100193.41;;;-2.00;80.66
70544;BME280;58097;48.364;-1.224;2022-12-17T06:43:09;100200.28;;;-1.93;79.75
70544;BME280;58097;48.364;-1.224;2022-12-17T06:45:53;100212.38;;;-2.00;79.88
70544;BME280;58097;48.364;-1.224;2022-12-17T06:48:38;100210.81;;;-2.06;81.13
70544;BME280;58097;48.364;-1.224;2022-12-17T06:51:22;100205.78;;;-2.13;81.39
70544;BME280;58097;48.364;-1.224;2022-12-17T06:54:06;100199.72;;;-2.19;81.85
70544;BME280;58097;48.364;-1.224;2022-12-17T06:56:50;100211.19;;;-2.32;82.39
70544;BME280;58097;48.364;-1.224;2022-12-17T06:59:34;100206.44;;;-2.46;82.42
70544;BME280;58097;48.364;-1.224;2022-12-17T07:02:18;100212.31;;;-2.55;83.13
70544;BME280;58097;48.364;-1.224;2022-12-17T07:05:02;100226.56;;;-2.52;82.32
70544;BME280;58097;48.364;-1.224;2022-12-17T07:08:06;100223.28;;;-2.58;82.50
70544;BME280;58097;48.364;-1.224;2022-12-17T07:10:50;100231.06;;;-2.71;83.19
70544;BME280;58097;48.364;-1.224;2022-12-17T07:13:33;100222.84;;;-2.88;83.83
70544;BME280;58097;48.364;-1.224;2022-12-17T07:16:17;100223.25;;;-2.97;84.12
70544;BME280;58097;48.364;-1.224;2022-12-17T07:19:02;100228.78;;;-3.00;84.19
70544;BME280;58097;48.364;-1.224;2022-12-17T07:21:46;100235.50;;;-3.09;84.92
70544;BME280;58097;48.364;-1.224;2022-12-17T07:24:29;100238.00;;;-3.04;84.84
70544;BME280;58097;48.364;-1.224;2022-12-17T07:27:13;100231.31;;;-3.16;85.12
70544;BME280;58097;48.364;-1.224;2022-12-17T07:29:57;100232.66;;;-3.06;84.05
70544;BME280;58097;48.364;-1.224;2022-12-17T07:32:41;100240.56;;;-3.01;84.90
70544;BME280;58097;48.364;-1.224;2022-12-17T07:35:25;100255.75;;;-2.99;84.42
70544;BME280;58097;48.364;-1.224;2022-12-17T07:38:09;100259.34;;;-2.98;84.16
70544;BME280;58097;48.364;-1.224;2022-12-17T07:40:53;100258.31;;;-2.96;83.41
70544;BME280;58097;48.364;-1.224;2022-12-17T07:43:37;100259.34;;;-2.98;83.79
70544;BME280;58097;48.364;-1.224;2022-12-17T07:46:21;100258.75;;;-3.05;84.02
70544;BME280;58097;48.364;-1.224;2022-12-17T07:49:05;100255.22;;;-3.07;83.99
70544;BME280;58097;48.364;-1.224;2022-12-17T07:51:49;100254.28;;;-3.06;83.96
70544;BME280;58097;48.364;-1.224;2022-12-17T07:54:33;100265.56;;;-3.17;84.47
70544;BME280;58097;48.364;-1.224;2022-12-17T07:57:17;100281.72;;;-3.15;84.69
70544;BME280;58097;48.364;-1.224;2022-12-17T08:00:00;100291.97;;;-3.23;85.40
70544;BME280;58097;48.364;-1.224;2022-12-17T08:02:44;100292.72;;;-3.20;84.95
70544;BME280;58097;48.364;-1.224;2022-12-17T08:05:28;100291.09;;;-3.24;85.51
70544;BME280;58097;48.364;-1.224;2022-12-17T08:08:13;100292.78;;;-3.21;85.25
70544;BME280;58097;48.364;-1.224;2022-12-17T08:10:57;100287.31;;;-3.20;85.45
70544;BME280;58097;48.364;-1.224;2022-12-17T08:13:41;100290.06;;;-3.21;85.38
70544;BME280;58097;48.364;-1.224;2022-12-17T08:16:25;100291.84;;;-3.20;85.22
70544;BME280;58097;48.364;-1.224;2022-12-17T08:19:09;100299.25;;;-3.25;85.33
70544;BME280;58097;48.364;-1.224;2022-12-17T08:21:53;100304.13;;;-3.33;85.15
70544;BME280;58097;48.364;-1.224;2022-12-17T08:24:44;100293.84;;;-3.46;85.64
70544;BME280;58097;48.364;-1.224;2022-12-17T08:27:28;100299.09;;;-3.42;85.49
70544;BME280;58097;48.364;-1.224;2022-12-17T08:30:12;100296.28;;;-3.39;85.81
70544;BME280;58097;48.364;-1.224;2022-12-17T08:33:01;100295.06;;;-3.32;85.63
70544;BME280;58097;48.364;-1.224;2022-12-17T08:35:54;100306.28;;;-3.21;84.78
70544;BME280;58097;48.364;-1.224;2022-12-17T08:38:38;100307.06;;;-3.18;84.68
70544;BME280;58097;48.364;-1.224;2022-12-17T08:41:22;100309.44;;;-3.10;84.26
70544;BME280;58097;48.364;-1.224;2022-12-17T08:44:06;100308.22;;;-3.03;83.74
70544;BME280;58097;48.364;-1.224;2022-12-17T08:46:50;100305.25;;;-2.97;83.81
70544;BME280;58097;48.364;-1.224;2022-12-17T08:49:54;100311.59;;;-2.98;83.69
70544;BME280;58097;48.364;-1.224;2022-12-17T08:52:38;100313.78;;;-2.86;83.16
70544;BME280;58097;48.364;-1.224;2022-12-17T08:55:21;100307.00;;;-2.96;84.00
70544;BME280;58097;48.364;-1.224;2022-12-17T08:58:07;100302.19;;;-2.89;83.91
70544;BME280;58097;48.364;-1.224;2022-12-17T09:00:51;100297.19;;;-2.98;84.19
70544;BME280;58097;48.364;-1.224;2022-12-17T09:03:35;100300.03;;;-3.01;84.26
70544;BME280;58097;48.364;-1.224;2022-12-17T09:06:19;100306.47;;;-3.04;84.37
70544;BME280;58097;48.364;-1.224;2022-12-17T09:09:03;100307.69;;;-3.11;84.93
70544;BME280;58097;48.364;-1.224;2022-12-17T09:11:48;100305.66;;;-3.06;84.50
70544;BME280;58097;48.364;-1.224;2022-12-17T09:14:32;100303.53;;;-3.20;85.51
70544;BME280;58097;48.364;-1.224;2022-12-17T09:17:16;100299.84;;;-3.17;85.46
70544;BME280;58097;48.364;-1.224;2022-12-17T09:20:00;100303.22;;;-3.12;85.02
70544;BME280;58097;48.364;-1.224;2022-12-17T09:22:44;100310.84;;;-3.01;84.95
70544;BME280;58097;48.364;-1.224;2022-12-17T09:25:27;100314.31;;;-2.98;85.01
70544;BME280;58097;48.364;-1.224;2022-12-17T09:28:11;100323.34;;;-2.99;85.14
70544;BME280;58097;48.364;-1.224;2022-12-17T09:30:59;100321.41;;;-2.95;85.32
70544;BME280;58097;48.364;-1.224;2022-12-17T09:33:43;100326.88;;;-2.97;84.97
70544;BME280;58097;48.364;-1.224;2022-12-17T09:36:28;100323.75;;;-3.08;85.32
70544;BME280;58097;48.364;-1.224;2022-12-17T09:39:12;100328.09;;;-3.04;86.29
70544;BME280;58097;48.364;-1.224;2022-12-17T09:51:04;100314.81;;;-2.88;85.13
70544;BME280;58097;48.364;-1.224;2022-12-17T09:53:49;100310.31;;;-2.89;85.29
70544;BME280;58097;48.364;-1.224;2022-12-17T09:56:35;100307.22;;;-3.00;85.77
70544;BME280;58097;48.364;-1.224;2022-12-17T09:59:46;100315.31;;;-3.00;85.75
70544;BME280;58097;48.364;-1.224;2022-12-17T10:02:30;100317.00;;;-2.98;85.73
70544;BME280;58097;48.364;-1.224;2022-12-17T10:05:30;100317.16;;;-3.01;85.45
70544;BME280;58097;48.364;-1.224;2022-12-17T10:08:19;100316.81;;;-2.93;85.20
70544;BME280;58097;48.364;-1.224;2022-12-17T10:11:19;100301.16;;;-2.85;85.00
70544;BME280;58097;48.364;-1.224;2022-12-17T10:14:20;100303.09;;;-2.89;85.08
70544;BME280;58097;48.364;-1.224;2022-12-17T10:17:13;100302.16;;;-2.88;84.52
70544;BME280;58097;48.364;-1.224;2022-12-17T10:19:58;100292.81;;;-2.81;84.80
70544;BME280;58097;48.364;-1.224;2022-12-17T10:22:47;100292.53;;;-2.95;85.64
70544;BME280;58097;48.364;-1.224;2022-12-17T10:25:32;100273.41;;;-2.90;85.69
70544;BME280;58097;48.364;-1.224;2022-12-17T10:28:21;100277.81;;;-2.88;85.84
70544;BME280;58097;48.364;-1.224;2022-12-17T10:31:10;100285.72;;;-2.83;85.42
70544;BME280;58097;48.364;-1.224;2022-12-17T10:33:57;100289.56;;;-2.68;84.96
70544;BME280;58097;48.364;-1.224;2022-12-17T10:36:45;100291.94;;;-2.81;85.60
70544;BME280;58097;48.364;-1.224;2022-12-17T10:39:32;100286.72;;;-2.65;85.19
70544;BME280;58097;48.364;-1.224;2022-12-17T10:42:21;100291.91;;;-2.61;85.16
70544;BME280;58097;48.364;-1.224;2022-12-17T10:48:02;100295.13;;;-2.32;83.98
70544;BME280;58097;48.364;-1.224;2022-12-17T10:50:46;100284.81;;;-2.24;83.88
70544;BME280;58097;48.364;-1.224;2022-12-17T10:53:30;100292.44;;;-2.13;83.97
70544;BME280;58097;48.364;-1.224;2022-12-17T10:56:21;100285.91;;;-2.09;84.00
70544;BME280;58097;48.364;-1.224;2022-12-17T10:59:10;100284.47;;;-1.98;83.76
70544;BME280;58097;48.364;-1.224;2022-12-17T11:01:58;100278.31;;;-1.82;83.32
70544;BME280;58097;48.364;-1.224;2022-12-17T11:04:53;100271.84;;;-1.80;83.28
70544;BME280;58097;48.364;-1.224;2022-12-17T11:07:39;100264.91;;;-1.67;83.07
70544;BME280;58097;48.364;-1.224;2022-12-17T11:10:28;100263.47;;;-1.57;83.03
70544;BME280;58097;48.364;-1.224;2022-12-17T11:13:26;100255.56;;;-1.42;82.55
70544;BME280;58097;48.364;-1.224;2022-12-17T11:16:31;100261.25;;;-1.48;82.19
70544;BME280;58097;48.364;-1.224;2022-12-17T11:22:31;100259.72;;;-1.71;81.29
70544;BME280;58097;48.364;-1.224;2022-12-17T11:25:33;100264.97;;;-1.68;81.05
70544;BME280;58097;48.364;-1.224;2022-12-17T11:28:22;100271.84;;;-1.61;81.15
70544;BME280;58097;48.364;-1.224;2022-12-17T11:52:08;100260.91;;;-0.72;78.86
70544;BME280;58097;48.364;-1.224;2022-12-17T12:00:40;100251.56;;;-1.01;79.31
70544;BME280;58097;48.364;-1.224;2022-12-17T12:06:52;100245.41;;;-0.87;78.90
70544;BME280;58097;48.364;-1.224;2022-12-17T12:09:58;100250.09;;;-0.56;79.23
70544;BME280;58097;48.364;-1.224;2022-12-17T12:12:56;100245.91;;;-0.46;77.71
70544;BME280;58097;48.364;-1.224;2022-12-17T12:15:48;100253.84;;;-0.58;77.49
70544;BME280;58097;48.364;-1.224;2022-12-17T12:34:12;100226.69;;;-0.25;76.96
70544;BME280;58097;48.364;-1.224;2022-12-17T12:37:02;100218.38;;;-0.07;76.41
70544;BME280;58097;48.364;-1.224;2022-12-17T12:39:52;100228.19;;;-0.04;76.08
70544;BME280;58097;48.364;-1.224;2022-12-17T12:42:43;100226.25;;;-0.18;75.84
70544;BME280;58097;48.364;-1.224;2022-12-17T12:51:19;100229.44;;;0.06;75.46
70544;BME280;58097;48.364;-1.224;2022-12-17T12:54:21;100228.63;;;0.20;76.40
70544;BME280;58097;48.364;-1.224;2022-12-17T12:57:25;100230.50;;;0.35;75.51
70544;BME280;58097;48.364;-1.224;2022-12-17T13:00:42;100234.31;;;0.47;75.97
70544;BME280;58097;48.364;-1.224;2022-12-17T13:06:49;100238.09;;;0.44;75.78
70544;BME280;58097;48.364;-1.224;2022-12-17T13:17:04;100228.72;;;1.10;75.20
70544;BME280;58097;48.364;-1.224;2022-12-17T13:22:22;100225.53;;;1.17;72.94
70544;BME280;58097;48.364;-1.224;2022-12-17T13:24:54;100227.47;;;1.15;73.41
70544;BME280;58097;48.364;-1.224;2022-12-17T13:27:30;100228.22;;;1.03;72.07
70544;BME280;58097;48.364;-1.224;2022-12-17T13:43:30;100183.50;;;0.93;72.00
70544;BME280;58097;48.364;-1.224;2022-12-17T13:45:57;100174.75;;;0.88;71.49
70544;BME280;58097;48.364;-1.224;2022-12-17T13:48:27;100165.34;;;1.08;72.96
70544;BME280;58097;48.364;-1.224;2022-12-17T13:50:55;100161.44;;;1.12;71.58
70544;BME280;58097;48.364;-1.224;2022-12-17T13:53:21;100150.19;;;1.18;71.86
70544;BME280;58097;48.364;-1.224;2022-12-17T13:55:52;100149.00;;;1.08;71.87
70544;BME280;58097;48.364;-1.224;2022-12-17T13:58:35;100156.63;;;1.17;72.98
70544;BME280;58097;48.364;-1.224;2022-12-17T14:01:09;100160.22;;;1.17;71.44
70544;BME280;58097;48.364;-1.224;2022-12-17T14:03:36;100159.34;;;1.17;71.34
70544;BME280;58097;48.364;-1.224;2022-12-17T14:06:02;100149.78;;;1.10;71.30
70544;BME280;58097;48.364;-1.224;2022-12-17T14:08:30;100135.72;;;1.17;71.03
70544;BME280;58097;48.364;-1.224;2022-12-17T14:10:56;100120.91;;;1.07;70.41
70544;BME280;58097;48.364;-1.224;2022-12-17T14:13:44;100119.59;;;0.84;70.14
70544;BME280;58097;48.364;-1.224;2022-12-17T14:16:15;100107.31;;;0.93;71.29
70544;BME280;58097;48.364;-1.224;2022-12-17T14:18:43;100097.28;;;0.93;70.86
70544;BME280;58097;48.364;-1.224;2022-12-17T14:21:11;100104.06;;;0.86;71.11
70544;BME280;58097;48.364;-1.224;2022-12-17T14:23:38;100094.56;;;0.93;71.79
70544;BME280;58097;48.364;-1.224;2022-12-17T14:26:04;100098.53;;;0.74;70.70
70544;BME280;58097;48.364;-1.224;2022-12-17T14:28:33;100105.44;;;0.79;71.43
70544;BME280;58097;48.364;-1.224;2022-12-17T14:31:21;100105.22;;;0.82;72.13
70544;BME280;58097;48.364;-1.224;2022-12-17T14:34:02;100106.81;;;1.01;72.58
70544;BME280;58097;48.364;-1.224;2022-12-17T14:36:33;100104.88;;;0.88;71.97
70544;BME280;58097;48.364;-1.224;2022-12-17T14:39:22;100114.69;;;0.91;71.77
70544;BME280;58097;48.364;-1.224;2022-12-17T14:41:45;100113.53;;;0.95;72.12
70544;BME280;58097;48.364;-1.224;2022-12-17T14:44:30;100103.19;;;0.72;71.31
70544;BME280;58097;48.364;-1.224;2022-12-17T14:49:32;100113.56;;;0.65;71.89
70544;BME280;58097;48.364;-1.224;2022-12-17T14:51:58;100132.63;;;0.65;71.20
70544;BME280;58097;48.364;-1.224;2022-12-17T14:56:57;100140.78;;;0.65;70.90
70544;BME280;58097;48.364;-1.224;2022-12-17T15:02:22;100157.91;;;0.51;71.24
70544;BME280;58097;48.364;-1.224;2022-12-17T15:04:52;100162.38;;;0.52;71.05
70544;BME280;58097;48.364;-1.224;2022-12-17T15:07:26;100170.81;;;0.48;70.98
70544;BME280;58097;48.364;-1.224;2022-12-17T15:09:53;100167.31;;;0.46;71.06
70544;BME280;58097;48.364;-1.224;2022-12-17T15:12:20;100170.63;;;0.51;71.47
70544;BME280;58097;48.364;-1.224;2022-12-17T15:14:46;100180.13;;;0.44;71.14
70544;BME280;58097;48.364;-1.224;2022-12-17T15:17:12;100178.34;;;0.58;71.84
70544;BME280;58097;48.364;-1.224;2022-12-17T15:19:37;100173.59;;;0.62;71.37
70544;BME280;58097;48.364;-1.224;2022-12-17T15:22:03;100173.91;;;0.72;71.67
70544;BME280;58097;48.364;-1.224;2022-12-17T15:24:29;100159.34;;;0.73;71.79
70544;BME280;58097;48.364;-1.224;2022-12-17T15:26:54;100154.00;;;0.71;71.72
70544;BME280;58097;48.364;-1.224;2022-12-17T15:29:19;100153.25;;;0.53;70.72
70544;BME280;58097;48.364;-1.224;2022-12-17T15:31:45;100156.53;;;0.44;71.19
70544;BME280;58097;48.364;-1.224;2022-12-17T15:34:10;100156.53;;;0.28;70.58
70544;BME280;58097;48.364;-1.224;2022-12-17T15:36:36;100145.44;;;0.17;71.01
70544;BME280;58097;48.364;-1.224;2022-12-17T15:39:01;100151.25;;;0.11;70.94
70544;BME280;58097;48.364;-1.224;2022-12-17T15:41:27;100156.16;;;0.05;71.13
70544;BME280;58097;48.364;-1.224;2022-12-17T15:44:11;100166.47;;;-0.02;71.29
70544;BME280;58097;48.364;-1.224;2022-12-17T15:46:37;100157.72;;;-0.07;71.35
70544;BME280;58097;48.364;-1.224;2022-12-17T15:49:02;100155.47;;;-0.15;71.49
70544;BME280;58097;48.364;-1.224;2022-12-17T15:51:28;100154.25;;;-0.25;71.53
70544;BME280;58097;48.364;-1.224;2022-12-17T15:53:53;100146.19;;;-0.26;71.65
70544;BME280;58097;48.364;-1.224;2022-12-17T15:56:22;100154.16;;;-0.23;71.82